Time;durP1;ratioP1;P1;durP2;ratioP2;P2;SDS_P1;SDS_P2;PMS_P1;PMS_P2;Temp;Humidity;BMP_temperature;BMP_pressure;BME280_temperature;BME280_humidity;BME280_pressure;Samples;Min_cycle;Max_cycle;Signal;HPM_P1;HPM_P2
2022/05/29 00:00:00;;;;;;;;;;;;;;;6.27;100.00;95530.94;1026303;28;20295;-72
2022/05/29 00:00:31;;;;;;;;;;;;;;;6.25;100.00;95527.00;1027241;28;19914;-72
2022/05/29 00:01:01;;;;;;;;;;;;;;;6.25;100.00;95527.78;1031239;28;19910;-73
2022/05/29 00:01:31;;;;;;;;;;;;;;;6.25;100.00;95532.19;1030910;28;19940;-73
2022/05/29 00:02:05;;;;;;;;;;;;;;;6.25;100.00;95527.78;1031043;28;19913;-73
2022/05/29 00:02:35;;;;;;;;;;;;;;;6.26;100.00;95533.78;1027043;28;19906;-75
2022/05/29 00:03:06;;;;;;;;;;;;;;;6.23;100.00;95523.81;1027407;28;19914;-73
2022/05/29 00:03:36;;;;;;;;;;;;;;;6.25;100.00;95525.16;1030994;28;19993;-75
2022/05/29 00:04:07;;;;;;;;;;;;;;;6.25;100.00;95527.78;1023717;28;19907;-74
2022/05/29 00:04:39;;;;;;;;;;;;;;;6.24;100.00;95526.22;1027024;28;19950;-75
2022/05/29 00:05:09;;;;;;;;;;;;;;;6.24;100.00;95530.63;1023053;29;19906;-75
2022/05/29 00:05:39;;;;;;;;;;;;;;;6.23;100.00;95526.44;1023462;28;20473;-75
2022/05/29 00:06:10;;;;;;;;;;;;;;;6.23;100.00;95529.03;1022972;28;19953;-71
2022/05/29 00:06:41;;;;;;;;;;;;;;;6.22;100.00;95530.84;1026987;28;19909;-72
2022/05/29 00:07:13;;;;;;;;;;;;;;;6.21;100.00;95531.91;1015234;29;19947;-75
2022/05/29 00:07:44;;;;;;;;;;;;;;;6.21;100.00;95531.13;1023367;28;20445;-73
2022/05/29 00:08:17;;;;;;;;;;;;;;;6.22;100.00;95533.47;1023362;28;19949;-74
2022/05/29 00:08:47;;;;;;;;;;;;;;;6.25;100.00;95525.16;1023759;28;19974;-73
2022/05/29 00:09:25;;;;;;;;;;;;;;;6.36;100.00;95529.47;1027034;28;19968;-74
2022/05/29 00:09:55;;;;;;;;;;;;;;;6.33;100.00;95518.75;1026679;28;20077;-74
2022/05/29 00:10:26;;;;;;;;;;;;;;;6.37;100.00;95531.06;1023955;28;19981;-75
2022/05/29 00:10:56;;;;;;;;;;;;;;;6.43;100.00;95525.91;1024603;28;20324;-75
2022/05/29 00:11:26;;;;;;;;;;;;;;;6.44;100.00;95524.88;1023621;28;20000;-73
2022/05/29 00:11:57;;;;;;;;;;;;;;;6.48;100.00;95515.56;1025949;28;20501;-73
2022/05/29 00:12:28;;;;;;;;;;;;;;;6.47;100.00;95524.41;1026977;28;19953;-74
2022/05/29 00:13:01;;;;;;;;;;;;;;;6.53;100.00;95519.00;1026413;28;19906;-73
2022/05/29 00:13:34;;;;;;;;;;;;;;;6.50;100.00;95516.88;1018143;29;19911;-73
2022/05/29 00:14:04;;;;;;;;;;;;;;;6.48;100.00;95515.56;1019780;29;19922;-74
2022/05/29 00:14:35;;;;;;;;;;;;;;;6.52;100.00;95519.25;1023745;28;19957;-76
2022/05/29 00:15:05;;;;;;;;;;;;;;;6.57;100.00;95520.13;1027916;28;19996;-75
2022/05/29 00:15:36;;;;;;;;;;;;;;;6.53;100.00;95518.22;1031101;28;19906;-74
2022/05/29 00:16:06;;;;;;;;;;;;;;;6.49;100.00;95515.31;1035205;28;20376;-73
2022/05/29 00:16:37;;;;;;;;;;;;;;;6.49;100.00;95514.53;1022742;29;19915;-74
2022/05/29 00:17:07;;;;;;;;;;;;;;;6.45;100.00;95506.41;1023116;28;19914;-73
2022/05/29 00:17:37;;;;;;;;;;;;;;;6.45;100.00;95513.44;1022904;29;19933;-74
2022/05/29 00:18:08;;;;;;;;;;;;;;;6.46;100.00;95510.59;1019154;29;19962;-74
2022/05/29 00:18:38;;;;;;;;;;;;;;;6.45;100.00;95508.22;1018737;29;19922;-73
2022/05/29 00:19:08;;;;;;;;;;;;;;;6.42;100.00;95508.72;1023144;29;19919;-75
2022/05/29 00:19:39;;;;;;;;;;;;;;;6.41;100.00;95517.56;1022514;28;19918;-73
2022/05/29 00:20:09;;;;;;;;;;;;;;;6.40;100.00;95508.94;1022937;28;19926;-72
2022/05/29 00:20:40;;;;;;;;;;;;;;;6.37;100.00;95515.44;1022858;29;19963;-73
2022/05/29 00:21:10;;;;;;;;;;;;;;;6.37;100.00;95517.22;1023147;29;19918;-72
2022/05/29 00:21:41;;;;;;;;;;;;;;;6.34;100.00;95510.72;1023257;28;19911;-71
2022/05/29 00:22:12;;;;;;;;;;;;;;;6.34;100.00;95512.53;1034449;28;19987;-72
2022/05/29 00:22:42;;;;;;;;;;;;;;;6.34;100.00;95509.94;1035051;28;19957;-74
2022/05/29 00:23:12;;;;;;;;;;;;;;;6.33;100.00;95510.94;1035026;28;19913;-73
2022/05/29 00:23:43;;;;;;;;;;;;;;;6.28;100.00;95511.66;1025329;28;19906;-74
2022/05/29 00:24:16;;;;;;;;;;;;;;;6.27;100.00;95511.88;1018953;29;19916;-75
2022/05/29 00:24:47;;;;;;;;;;;;;;;6.26;100.00;95511.09;1022964;28;19921;-76
2022/05/29 00:25:18;;;;;;;;;;;;;;;6.25;100.00;95514.75;1024058;28;19921;-74
2022/05/29 00:25:49;;;;;;;;;;;;;;;6.24;100.00;95515.00;1023018;28;19997;-74
2022/05/29 00:26:19;;;;;;;;;;;;;;;6.22;100.00;95512.63;1023587;28;19919;-73
2022/05/29 00:26:49;;;;;;;;;;;;;;;6.22;100.00;95515.22;1022966;29;19950;-74
2022/05/29 00:27:20;;;;;;;;;;;;;;;6.21;100.00;95513.66;1023335;28;19986;-73
2022/05/29 00:27:50;;;;;;;;;;;;;;;6.23;100.00;95508.19;1026975;28;19965;-72
2022/05/29 00:28:20;;;;;;;;;;;;;;;6.22;100.00;95511.84;1026980;28;19910;-75
2022/05/29 00:28:51;;;;;;;;;;;;;;;6.20;100.00;95517.28;1026960;28;19915;-73
2022/05/29 00:29:22;;;;;;;;;;;;;;;6.18;100.00;95511.53;1022720;28;19950;-75
2022/05/29 00:29:55;;;;;;;;;;;;;;;6.17;100.00;95515.19;1022530;28;19907;-74
2022/05/29 00:30:25;;;;;;;;;;;;;;;6.16;100.00;95508.38;1023471;28;19921;-74
2022/05/29 00:30:55;;;;;;;;;;;;;;;6.16;100.00;95512.78;1023272;28;19914;-74
2022/05/29 00:31:26;;;;;;;;;;;;;;;6.14;100.00;95510.44;1022853;28;20580;-75
2022/05/29 00:31:56;;;;;;;;;;;;;;;6.15;100.00;95506.78;1026168;28;19918;-73
2022/05/29 00:32:26;;;;;;;;;;;;;;;6.16;100.00;95513.56;1031087;28;19966;-75
2022/05/29 00:32:57;;;;;;;;;;;;;;;6.14;100.00;95511.22;1030734;28;19992;-74
2022/05/29 00:33:27;;;;;;;;;;;;;;;6.13;100.00;95508.84;1035160;28;19984;-74
2022/05/29 00:33:57;;;;;;;;;;;;;;;6.12;100.00;95512.47;1031022;28;20024;-75
2022/05/29 00:34:27;;;;;;;;;;;;;;;6.13;100.00;95501.03;1030877;28;19925;-74
2022/05/29 00:34:58;;;;;;;;;;;;;;;6.12;100.00;95505.47;1030999;28;19940;-73
2022/05/29 00:35:28;;;;;;;;;;;;;;;6.11;100.00;95506.50;1031001;28;19917;-76
2022/05/29 00:35:58;;;;;;;;;;;;;;;6.10;100.00;95504.09;1030963;28;19918;-73
2022/05/29 00:36:32;;;;;;;;;;;;;;;6.11;100.00;95508.31;1035170;28;19922;-73
2022/05/29 00:37:05;;;;;;;;;;;;;;;6.09;100.00;95507.75;1038976;28;20602;-76
2022/05/29 00:37:36;;;;;;;;;;;;;;;6.09;100.00;95505.16;1033605;28;19914;-73
2022/05/29 00:38:07;;;;;;;;;;;;;;;6.06;100.00;95508.22;1030999;28;19914;-74
2022/05/29 00:38:38;;;;;;;;;;;;;;;6.08;100.00;95500.97;1030855;28;20299;-75
2022/05/29 00:39:09;;;;;;;;;;;;;;;6.08;100.00;95500.97;1031098;28;20379;-73
2022/05/29 00:39:39;;;;;;;;;;;;;;;6.09;100.00;95503.31;1022432;28;19966;-74
2022/05/29 00:40:18;;;;;;;;;;;;;;;6.15;100.00;95506.78;1027225;28;19914;-75
2022/05/29 00:40:54;;;;;;;;;;;;;;;6.18;100.00;95501.13;1027058;28;19917;-75
2022/05/29 00:41:30;;;;;;;;;;;;;;;6.17;100.00;95496.13;1024769;28;19917;-73
2022/05/29 00:42:04;;;;;;;;;;;;;;;6.16;100.00;95508.38;1018938;29;20014;-75
2022/05/29 00:42:35;;;;;;;;;;;;;;;6.14;100.00;95507.84;1022802;29;19911;-76
2022/05/29 00:43:05;;;;;;;;;;;;;;;6.11;100.00;95503.09;1027020;28;19915;-74
2022/05/29 00:43:38;;;;;;;;;;;;;;;6.09;100.00;95507.75;1026787;28;19918;-75
2022/05/29 00:44:21;;;;;;;;;;;;;;;6.07;100.00;95499.38;1027381;28;19993;-74
2022/05/29 00:44:51;;;;;;;;;;;;;;;6.06;100.00;95503.03;1025134;28;19911;-75
2022/05/29 00:45:22;;;;;;;;;;;;;;;6.06;100.00;95513.44;1028890;28;20400;-74
2022/05/29 00:45:59;;;;;;;;;;;;;;;6.04;100.00;95502.50;1026963;28;20927;-74
2022/05/29 00:46:29;;;;;;;;;;;;;;;6.04;100.00;95505.09;1034362;28;20064;-77
2022/05/29 00:47:06;;;;;;;;;;;;;;;6.03;100.00;95508.69;1035074;28;20101;-73
2022/05/29 00:47:36;;;;;;;;;;;;;;;6.02;100.00;95507.91;1026633;28;19917;-74
2022/05/29 00:48:06;;;;;;;;;;;;;;;6.00;100.00;95503.97;1027763;28;19968;-75
2022/05/29 00:48:37;;;;;;;;;;;;;;;6.01;100.00;95502.97;1022996;29;19914;-74
2022/05/29 00:49:07;;;;;;;;;;;;;;;6.04;100.00;95505.88;1015140;29;20297;-74
2022/05/29 00:49:37;;;;;;;;;;;;;;;6.02;100.00;95504.53;1022151;28;19956;-73
2022/05/29 00:50:09;;;;;;;;;;;;;;;6.01;100.00;95501.13;1023280;28;19917;-75
2022/05/29 00:50:42;;;;;;;;;;;;;;;6.02;100.00;95502.72;1026970;28;19918;-76
2022/05/29 00:51:12;;;;;;;;;;;;;;;6.01;100.00;95500.34;1031540;28;19985;-75
2022/05/29 00:51:44;;;;;;;;;;;;;;;5.98;100.00;95499.00;1030818;28;20008;-73
2022/05/29 00:52:18;;;;;;;;;;;;;;;5.96;100.00;95502.88;1023429;28;19997;-73
2022/05/29 00:52:49;;;;;;;;;;;;;;;5.97;100.00;95499.22;1023077;29;20022;-74
2022/05/29 00:53:19;;;;;;;;;;;;;;;5.92;100.00;95499.94;1019675;29;20436;-74
2022/05/29 00:53:50;;;;;;;;;;;;;;;5.91;100.00;95496.53;1024153;28;19966;-74
2022/05/29 00:54:21;;;;;;;;;;;;;;;5.91;100.00;95496.53;1026926;28;19910;-72
2022/05/29 00:54:55;;;;;;;;;;;;;;;5.90;100.00;95500.19;1026941;28;19914;-72
2022/05/29 00:55:26;;;;;;;;;;;;;;;5.88;100.00;95502.22;1023876;28;19945;-77
2022/05/29 00:56:05;;;;;;;;;;;;;;;5.90;100.00;95500.19;1027543;28;19913;-75
2022/05/29 00:56:36;;;;;;;;;;;;;;;5.91;100.00;95491.34;1028578;28;20010;-74
2022/05/29 00:57:06;;;;;;;;;;;;;;;5.97;100.00;95494.84;1022947;29;19942;-73
2022/05/29 00:57:37;;;;;;;;;;;;;;;5.98;100.00;95495.63;1022935;29;19938;-75
2022/05/29 00:58:08;;;;;;;;;;;;;;;5.97;100.00;95497.44;1022751;29;19921;-73
2022/05/29 00:58:38;;;;;;;;;;;;;;;5.94;100.00;95494.53;1022911;29;19915;-73
2022/05/29 00:59:13;;;;;;;;;;;;;;;5.93;100.00;95492.94;1023312;28;19973;-73
2022/05/29 00:59:43;;;;;;;;;;;;;;;5.91;100.00;95495.75;1019280;28;19915;-73
2022/05/29 01:00:15;;;;;;;;;;;;;;;5.90;100.00;95488.94;1023265;28;19918;-73
2022/05/29 01:00:47;;;;;;;;;;;;;;;5.90;100.00;95491.56;1022987;29;20001;-74
2022/05/29 01:01:18;;;;;;;;;;;;;;;5.89;100.00;95490.78;1023974;28;20449;-76
2022/05/29 01:01:49;;;;;;;;;;;;;;;5.86;100.00;95488.66;1031400;28;19920;-74
2022/05/29 01:02:19;;;;;;;;;;;;;;;5.76;100.00;95472.88;1026725;28;19921;-73
2022/05/29 01:02:50;;;;;;;;;;;;;;;5.89;100.00;95482.19;1022994;29;19919;-76
2022/05/29 01:03:20;;;;;;;;;;;;;;;5.88;100.00;95485.81;1018933;29;19938;-72
2022/05/29 01:03:50;;;;;;;;;;;;;;;5.93;100.00;95482.53;1019004;29;20411;-74
2022/05/29 01:04:21;;;;;;;;;;;;;;;5.92;100.00;95484.31;1022778;28;19915;-73
2022/05/29 01:04:54;;;;;;;;;;;;;;;5.95;100.00;95478.66;1028245;28;19949;-75
2022/05/29 01:05:25;;;;;;;;;;;;;;;5.94;100.00;95479.69;1031104;28;19910;-73
2022/05/29 01:05:56;;;;;;;;;;;;;;;5.93;100.00;95477.31;1028487;28;19957;-74
2022/05/29 01:06:28;;;;;;;;;;;;;;;5.94;100.00;95484.13;1026771;28;19924;-75
2022/05/29 01:07:00;;;;;;;;;;;;;;;5.90;100.00;95476.75;1027193;28;19941;-73
2022/05/29 01:07:30;;;;;;;;;;;;;;;5.94;100.00;95478.91;1025421;28;20008;-72
2022/05/29 01:08:06;;;;;;;;;;;;;;;5.95;100.00;95480.47;1022785;29;20560;-72
2022/05/29 01:08:36;;;;;;;;;;;;;;;5.94;100.00;95473.69;1026795;28;19913;-75
2022/05/29 01:09:07;;;;;;;;;;;;;;;5.91;100.00;95475.72;1024524;28;20408;-73
2022/05/29 01:09:38;;;;;;;;;;;;;;;5.93;100.00;95482.53;1027655;28;19914;-72
2022/05/29 01:10:08;;;;;;;;;;;;;;;5.94;100.00;95484.13;1027480;28;20001;-74
2022/05/29 01:10:47;;;;;;;;;;;;;;;5.90;100.00;95476.75;1019654;29;20343;-74
2022/05/29 01:11:19;;;;;;;;;;;;;;;5.89;100.00;95475.16;1021389;28;20001;-74
2022/05/29 01:11:55;;;;;;;;;;;;;;;5.93;100.00;95467.69;1028866;28;19977;-75
2022/05/29 01:12:44;;;;;;;;;;;;;;;5.95;100.00;95470.06;1031887;28;19922;-75
2022/05/29 01:13:15;;;;;;;;;;;;;;;5.95;100.00;95472.66;1035888;28;20358;-75
2022/05/29 01:13:45;;;;;;;;;;;;;;;5.96;100.00;95476.84;1033877;28;20009;-75
2022/05/29 01:14:15;;;;;;;;;;;;;;;5.96;100.00;95471.63;1035849;28;20381;-74
2022/05/29 01:15:04;;;;;;;;;;;;;;;5.97;100.00;95473.19;1036003;28;19953;-74
2022/05/29 01:15:37;;;;;;;;;;;;;;;5.97;100.00;95467.97;1036004;28;19956;-73
2022/05/29 01:16:13;;;;;;;;;;;;;;;5.97;100.00;95467.97;1035874;28;19921;-73
2022/05/29 01:16:43;;;;;;;;;;;;;;;5.99;100.00;95465.94;1031482;28;20322;-75
2022/05/29 01:17:39;;;;;;;;;;;;;;;5.99;100.00;95465.94;1031769;28;19910;-75
2022/05/29 01:18:21;;;;;;;;;;;;;;;5.98;100.00;95461.78;1031752;28;19924;-75
2022/05/29 01:19:10;;;;;;;;;;;;;;;5.98;100.00;95459.16;1027304;28;20329;-76
2022/05/29 01:19:51;;;;;;;;;;;;;;;5.99;100.00;95458.13;1027042;28;19961;-72
2022/05/29 01:20:26;;;;;;;;;;;;;;;5.98;100.00;95461.78;1027362;28;19918;-74
2022/05/29 01:21:09;;;;;;;;;;;;;;;5.96;100.00;95461.22;1027586;28;19913;-76
2022/05/29 01:21:46;;;;;;;;;;;;;;;5.95;100.00;95459.66;1023862;28;19922;-75
2022/05/29 01:22:38;;;;;;;;;;;;;;;5.91;100.00;95465.28;1033364;28;19917;-74
2022/05/29 01:23:08;;;;;;;;;;;;;;;5.87;100.00;95464.22;1035719;28;20438;-74
2022/05/29 01:23:48;;;;;;;;;;;;;;;5.82;100.00;95460.72;1029928;28;19917;-76
2022/05/29 01:24:22;;;;;;;;;;;;;;;5.77;100.00;95458.84;1035518;28;19964;-76
2022/05/29 01:24:52;;;;;;;;;;;;;;;5.73;100.00;95457.72;1031867;28;20698;-73
2022/05/29 01:25:28;;;;;;;;;;;;;;;5.70;100.00;95457.41;1025045;28;19965;-74
2022/05/29 01:25:58;;;;;;;;;;;;;;;5.66;100.00;95457.13;1023601;28;19918;-73
2022/05/29 01:26:37;;;;;;;;;;;;;;;5.61;100.00;95454.44;1024381;28;19926;-74
2022/05/29 01:27:18;;;;;;;;;;;;;;;5.59;100.00;95451.28;1027359;28;19941;-74
2022/05/29 01:27:49;;;;;;;;;;;;;;;5.57;100.00;95446.34;1026158;28;19922;-75
2022/05/29 01:28:29;;;;;;;;;;;;;;;5.57;100.00;95448.16;1028354;28;20402;-75
2022/05/29 01:29:05;;;;;;;;;;;;;;;5.54;100.00;95443.41;1027590;28;19965;-75
2022/05/29 01:29:42;;;;;;;;;;;;;;;5.51;100.00;95446.50;1026016;28;19922;-73
2022/05/29 01:30:31;;;;;;;;;;;;;;;5.53;100.00;95441.81;1027575;28;19984;-74
2022/05/29 01:31:24;;;;;;;;;;;;;;;5.56;100.00;95447.34;1029563;28;19918;-71
2022/05/29 01:31:55;;;;;;;;;;;;;;;5.59;100.00;95439.06;1020959;28;20444;-74
2022/05/29 01:32:40;;;;;;;;;;;;;;;5.57;100.00;95442.94;1031132;28;19913;-74
2022/05/29 01:33:28;;;;;;;;;;;;;;;5.54;100.00;95433.00;1023741;28;19949;-74
2022/05/29 01:34:02;;;;;;;;;;;;;;;5.54;100.00;95440.81;1024130;28;20327;-75
2022/05/29 01:34:36;;;;;;;;;;;;;;;5.57;100.00;95433.31;1031660;28;19968;-73
2022/05/29 01:35:14;;;;;;;;;;;;;;;5.60;100.00;95434.63;1030475;28;20546;-74
2022/05/29 01:36:02;;;;;;;;;;;;;;;5.60;100.00;95432.03;1023490;28;19922;-74
2022/05/29 01:36:32;;;;;;;;;;;;;;;5.48;100.00;95416.53;1023744;29;19919;-74
2022/05/29 01:37:18;;;;;;;;;;;;;;;5.54;100.00;95427.81;1030437;28;19914;-76
2022/05/29 01:38:08;;;;;;;;;;;;;;;5.51;100.00;95428.28;1039504;28;19921;-75
2022/05/29 01:38:40;;;;;;;;;;;;;;;5.54;100.00;95427.81;1035677;28;19996;-75
2022/05/29 01:39:33;;;;;;;;;;;;;;;5.55;100.00;95424.16;1031643;28;19918;-72
2022/05/29 01:40:07;;;;;;;;;;;;;;;5.50;100.00;95422.28;1024415;28;19960;-74
2022/05/29 01:40:41;;;;;;;;;;;;;;;5.47;100.00;95424.56;1031448;28;20470;-75
2022/05/29 01:41:13;;;;;;;;;;;;;;;5.44;100.00;95421.41;1027574;28;19914;-75
2022/05/29 01:41:53;;;;;;;;;;;;;;;5.49;100.00;95419.91;1024751;28;19915;-74
2022/05/29 01:42:24;;;;;;;;;;;;;;;5.51;100.00;95425.69;1023330;29;19938;-74
2022/05/29 01:43:12;;;;;;;;;;;;;;;5.50;100.00;95426.69;1026980;28;19981;-73
2022/05/29 01:43:44;;;;;;;;;;;;;;;5.49;100.00;95420.69;1031354;28;19985;-73
2022/05/29 01:44:16;;;;;;;;;;;;;;;5.43;100.00;95417.25;1034088;28;19964;-72
2022/05/29 01:45:05;;;;;;;;;;;;;;;5.43;100.00;95419.84;1035159;28;19929;-73
2022/05/29 01:45:53;;;;;;;;;;;;;;;5.44;100.00;95423.22;1031484;28;19914;-74
2022/05/29 01:46:24;;;;;;;;;;;;;;;5.46;100.00;95415.97;1030220;28;19929;-76
2022/05/29 01:46:55;;;;;;;;;;;;;;;5.43;100.00;95417.25;1027553;28;19918;-74
2022/05/29 01:47:31;;;;;;;;;;;;;;;5.41;100.00;95419.28;1023689;29;20451;-74
2022/05/29 01:48:04;;;;;;;;;;;;;;;5.41;100.00;95414.09;1026450;28;19918;-73
2022/05/29 01:48:49;;;;;;;;;;;;;;;5.47;100.00;95417.56;1025939;28;19926;-75
2022/05/29 01:49:19;;;;;;;;;;;;;;;5.51;100.00;95416.06;1027350;28;19920;-72
2022/05/29 01:49:50;;;;;;;;;;;;;;;5.51;100.00;95413.44;1025036;28;20542;-73
2022/05/29 01:50:28;;;;;;;;;;;;;;;5.49;100.00;95412.09;1023417;29;19919;-74
2022/05/29 01:51:04;;;;;;;;;;;;;;;5.51;100.00;95412.66;1024591;28;19918;-74
2022/05/29 01:51:38;;;;;;;;;;;;;;;5.47;100.00;95411.56;1029070;28;19914;-74
2022/05/29 01:52:20;;;;;;;;;;;;;;;5.42;100.00;95415.66;1031537;28;19917;-76
2022/05/29 01:52:54;;;;;;;;;;;;;;;5.37;100.00;95413.00;1031800;28;20029;-73
2022/05/29 01:53:26;;;;;;;;;;;;;;;5.39;100.00;95405.72;1031733;28;20339;-73
2022/05/29 01:53:59;;;;;;;;;;;;;;;5.38;100.00;95406.75;1027942;28;19925;-74
2022/05/29 01:54:29;;;;;;;;;;;;;;;5.34;100.00;95410.84;1022382;28;19966;-74
2022/05/29 01:55:03;;;;;;;;;;;;;;;5.33;100.00;95417.09;1026144;28;19926;-73
2022/05/29 01:55:35;;;;;;;;;;;;;;;5.40;100.00;95409.13;1024787;28;19969;-75
2022/05/29 01:56:24;;;;;;;;;;;;;;;5.38;100.00;95408.56;1020415;29;19915;-74
2022/05/29 01:56:56;;;;;;;;;;;;;;;5.37;100.00;95412.22;1023633;29;20451;-76
2022/05/29 01:57:27;;;;;;;;;;;;;;;5.33;100.00;95411.88;1027586;28;19914;-74
2022/05/29 01:57:59;;;;;;;;;;;;;;;5.37;100.00;95410.38;1027859;28;19922;-72
2022/05/29 01:58:33;;;;;;;;;;;;;;;5.41;100.00;95408.88;1027315;28;20443;-75
2022/05/29 01:59:11;;;;;;;;;;;;;;;5.36;100.00;95408.78;1025727;28;19906;-74
2022/05/29 01:59:47;;;;;;;;;;;;;;;5.37;100.00;95407.78;1028703;28;19948;-74
2022/05/29 02:00:18;;;;;;;;;;;;;;;5.35;100.00;95409.81;1023837;29;19914;-74
2022/05/29 02:00:48;;;;;;;;;;;;;;;5.36;100.00;95408.78;1020012;29;19926;-75
2022/05/29 02:01:18;;;;;;;;;;;;;;;5.34;100.00;95403.06;1019973;29;20392;-74
2022/05/29 02:01:52;;;;;;;;;;;;;;;5.29;100.00;95400.34;1019892;29;19915;-73
2022/05/29 02:02:27;;;;;;;;;;;;;;;5.28;100.00;95406.59;1024004;29;20335;-73
2022/05/29 02:03:16;;;;;;;;;;;;;;;5.26;100.00;95403.44;1024979;28;19919;-74
2022/05/29 02:03:50;;;;;;;;;;;;;;;5.24;100.00;95402.91;1034807;28;19925;-74
2022/05/29 02:04:22;;;;;;;;;;;;;;;5.21;100.00;95398.16;1031922;28;19971;-73
2022/05/29 02:04:53;;;;;;;;;;;;;;;5.19;100.00;95405.41;1031694;28;20820;-75
2022/05/29 02:05:24;;;;;;;;;;;;;;;5.18;100.00;95403.84;1028041;28;19954;-72
2022/05/29 02:05:55;;;;;;;;;;;;;;;5.14;100.00;95397.53;1024447;28;19918;-75
2022/05/29 02:06:27;;;;;;;;;;;;;;;5.13;100.00;95401.16;1020526;29;19914;-73
2022/05/29 02:07:50;;;;;;;;;;;;;;;5.11;100.00;95401.41;1026777;28;19914;-73
2022/05/29 02:08:24;;;;;;;;;;;;;;;5.07;100.00;95396.91;1026170;28;19918;-73
2022/05/29 02:09:05;;;;;;;;;;;;;;;5.05;100.00;95388.53;1027795;28;20451;-73
2022/05/29 02:09:36;;;;;;;;;;;;;;;5.08;100.00;95398.47;1035394;28;19921;-73
2022/05/29 02:10:07;;;;;;;;;;;;;;;5.05;100.00;95393.75;1033895;28;19968;-74
2022/05/29 02:10:47;;;;;;;;;;;;;;;5.03;100.00;95390.59;1031933;28;20064;-75
2022/05/29 02:11:23;;;;;;;;;;;;;;;5.00;100.00;95396.25;1021651;29;20493;-75
2022/05/29 02:11:54;;;;;;;;;;;;;;;4.98;100.00;95393.91;1020533;29;20385;-74
2022/05/29 02:12:25;;;;;;;;;;;;;;;5.00;100.00;95391.88;1022263;29;19923;-72
2022/05/29 02:13:14;;;;;;;;;;;;;;;4.97;100.00;95387.13;1020852;29;19993;-73
2022/05/29 02:13:47;;;;;;;;;;;;;;;4.95;100.00;95387.34;1024860;28;19915;-73
2022/05/29 02:14:19;;;;;;;;;;;;;;;4.94;100.00;95385.78;1030945;28;19957;-75
2022/05/29 02:14:52;;;;;;;;;;;;;;;4.94;100.00;95385.00;1027106;28;19921;-75
2022/05/29 02:15:28;;;;;;;;;;;;;;;4.93;100.00;95386.81;1028688;28;19918;-75
2022/05/29 02:16:02;;;;;;;;;;;;;;;4.93;100.00;95380.84;1028056;28;20002;-74
2022/05/29 02:16:46;;;;;;;;;;;;;;;4.87;100.00;95374.75;1031381;28;19918;-74
2022/05/29 02:17:17;;;;;;;;;;;;;;;4.92;100.00;95380.03;1027719;28;19933;-74
2022/05/29 02:17:48;;;;;;;;;;;;;;;4.92;100.00;95377.41;1022234;29;19919;-72
2022/05/29 02:18:35;;;;;;;;;;;;;;;4.89;100.00;95380.50;1016076;29;20468;-74
2022/05/29 02:19:15;;;;;;;;;;;;;;;4.88;100.00;95373.72;1019653;29;19911;-73
2022/05/29 02:19:47;;;;;;;;;;;;;;;4.87;100.00;95379.97;1019290;29;20338;-74
2022/05/29 02:20:23;;;;;;;;;;;;;;;4.86;100.00;95375.78;1019763;29;19942;-73
2022/05/29 02:20:55;;;;;;;;;;;;;;;4.86;100.00;95375.78;1019947;29;20396;-73
2022/05/29 02:21:34;;;;;;;;;;;;;;;4.85;100.00;95374.19;1017083;29;20289;-75
2022/05/29 02:22:12;;;;;;;;;;;;;;;4.86;100.00;95369.78;1020178;29;19953;-74
2022/05/29 02:22:42;;;;;;;;;;;;;;;4.89;100.00;95369.31;1018365;29;19998;-74
2022/05/29 02:23:15;;;;;;;;;;;;;;;4.90;100.00;95374.28;1020352;29;20365;-73
2022/05/29 02:23:47;;;;;;;;;;;;;;;4.90;100.00;95373.50;1019523;29;19915;-74
2022/05/29 02:24:25;;;;;;;;;;;;;;;4.92;100.00;95379.25;1020405;29;20002;-73
2022/05/29 02:24:56;;;;;;;;;;;;;;;4.92;100.00;95372.22;1024379;28;20006;-74
2022/05/29 02:25:26;;;;;;;;;;;;;;;4.89;100.00;95369.31;1025213;28;19915;-74
2022/05/29 02:25:57;;;;;;;;;;;;;;;4.87;100.00;95372.16;1023655;28;19914;-74
2022/05/29 02:26:28;;;;;;;;;;;;;;;4.87;100.00;95369.56;1028198;28;19938;-74
2022/05/29 02:27:03;;;;;;;;;;;;;;;4.86;100.00;95367.19;1028058;28;19914;-75
2022/05/29 02:27:37;;;;;;;;;;;;;;;4.85;100.00;95363.00;1028374;28;20409;-73
2022/05/29 02:28:10;;;;;;;;;;;;;;;4.84;100.00;95364.81;1028137;28;19998;-75
2022/05/29 02:28:41;;;;;;;;;;;;;;;4.85;100.00;95369.00;1023963;29;19914;-72
2022/05/29 02:29:12;;;;;;;;;;;;;;;4.83;100.00;95363.25;1026019;28;20360;-75
2022/05/29 02:29:42;;;;;;;;;;;;;;;4.84;100.00;95367.44;1031773;28;19964;-72
2022/05/29 02:30:14;;;;;;;;;;;;;;;4.82;100.00;95364.25;1024134;28;19929;-76
2022/05/29 02:30:49;;;;;;;;;;;;;;;4.81;100.00;95361.91;1024044;29;19946;-75
2022/05/29 02:31:23;;;;;;;;;;;;;;;4.81;100.00;95362.69;1023872;29;19911;-76
2022/05/29 02:31:57;;;;;;;;;;;;;;;4.79;100.00;95362.13;1026692;28;19910;-74
2022/05/29 02:32:30;;;;;;;;;;;;;;;4.79;100.00;95364.72;1029674;28;19984;-72
2022/05/29 02:33:20;;;;;;;;;;;;;;;4.81;100.00;95362.69;1033365;28;19968;-72
2022/05/29 02:33:54;;;;;;;;;;;;;;;4.83;100.00;95358.06;1035458;28;19917;-75
2022/05/29 02:34:32;;;;;;;;;;;;;;;4.80;100.00;95362.94;1027189;28;19939;-72
2022/05/29 02:35:02;;;;;;;;;;;;;;;4.77;100.00;95361.59;1023940;29;19917;-74
2022/05/29 02:35:51;;;;;;;;;;;;;;;4.76;100.00;95360.00;1023808;29;19936;-74
2022/05/29 02:36:29;;;;;;;;;;;;;;;4.74;100.00;95354.25;1030132;28;19906;-73
2022/05/29 02:37:09;;;;;;;;;;;;;;;4.71;100.00;95354.72;1027398;28;20327;-74
2022/05/29 02:37:39;;;;;;;;;;;;;;;4.71;100.00;95357.34;1028452;28;20312;-75
2022/05/29 02:38:13;;;;;;;;;;;;;;;4.69;100.00;95354.16;1027928;28;19922;-75
2022/05/29 02:38:45;;;;;;;;;;;;;;;4.67;100.00;95346.63;1027634;28;19910;-74
2022/05/29 02:39:18;;;;;;;;;;;;;;;4.68;100.00;95357.78;1027758;28;19937;-71
2022/05/29 02:39:53;;;;;;;;;;;;;;;4.68;100.00;95348.19;1028152;28;19922;-75
2022/05/29 02:40:33;;;;;;;;;;;;;;;4.67;100.00;95345.84;1031858;28;20020;-74
2022/05/29 02:41:08;;;;;;;;;;;;;;;4.66;100.00;95349.44;1025918;28;19914;-74
2022/05/29 02:41:41;;;;;;;;;;;;;;;4.63;100.00;95349.94;1022374;29;19937;-75
2022/05/29 02:42:34;;;;;;;;;;;;;;;4.61;100.00;95355.34;1023808;29;19954;-75
2022/05/29 02:43:06;;;;;;;;;;;;;;;4.63;100.00;95355.13;1019763;28;19962;-75
2022/05/29 02:43:42;;;;;;;;;;;;;;;4.59;100.00;95351.41;1031025;28;19945;-76
2022/05/29 02:44:15;;;;;;;;;;;;;;;4.60;100.00;95358.19;1027771;28;19914;-76
2022/05/29 02:44:48;;;;;;;;;;;;;;;4.59;100.00;95354.78;1023801;29;20431;-73
2022/05/29 02:45:18;;;;;;;;;;;;;;;4.59;100.00;95346.97;1022678;28;20304;-74
2022/05/29 02:45:51;;;;;;;;;;;;;;;4.59;100.00;95354.00;1028891;28;19921;-74
2022/05/29 02:46:33;;;;;;;;;;;;;;;4.58;100.00;95347.22;1024263;28;20331;-75
2022/05/29 02:47:11;;;;;;;;;;;;;;;4.59;100.00;95341.78;1027900;28;20315;-74
2022/05/29 02:47:43;;;;;;;;;;;;;;;4.59;100.00;95348.81;1023693;29;19946;-75
2022/05/29 02:48:17;;;;;;;;;;;;;;;4.62;100.00;95343.13;1029402;28;20293;-73
2022/05/29 02:48:49;;;;;;;;;;;;;;;4.64;100.00;95346.31;1027772;28;19921;-73
2022/05/29 02:49:19;;;;;;;;;;;;;;;4.66;100.00;95349.44;1027779;28;19910;-73
2022/05/29 02:49:53;;;;;;;;;;;;;;;4.66;100.00;95349.44;1023571;28;20322;-72
2022/05/29 02:50:26;;;;;;;;;;;;;;;4.72;100.00;95345.91;1028449;28;19949;-75
2022/05/29 02:51:02;;;;;;;;;;;;;;;4.71;100.00;95339.13;1028464;28;19918;-73
2022/05/29 02:51:32;;;;;;;;;;;;;;;4.76;100.00;95344.41;1033341;28;19920;-73
2022/05/29 02:52:11;;;;;;;;;;;;;;;4.76;100.00;95341.81;1031854;28;19932;-74
2022/05/29 02:52:41;;;;;;;;;;;;;;;4.77;100.00;95340.03;1029489;28;19946;-72
2022/05/29 02:53:12;;;;;;;;;;;;;;;4.84;100.00;95341.44;1027733;28;19919;-73
2022/05/29 02:53:45;;;;;;;;;;;;;;;4.85;100.00;95340.41;1024903;28;20009;-73
2022/05/29 02:54:25;;;;;;;;;;;;;;;4.88;100.00;95332.13;1024227;28;19982;-73
2022/05/29 02:54:57;;;;;;;;;;;;;;;4.87;100.00;95338.38;1025202;28;19989;-73
2022/05/29 02:55:28;;;;;;;;;;;;;;;4.88;100.00;95339.94;1025661;28;19915;-75
2022/05/29 02:55:58;;;;;;;;;;;;;;;4.88;100.00;95342.53;1027759;28;20359;-73
2022/05/29 02:56:29;;;;;;;;;;;;;;;4.91;100.00;95334.25;1028773;28;19917;-75
2022/05/29 02:57:00;;;;;;;;;;;;;;;4.89;100.00;95338.13;1035696;28;19917;-76
2022/05/29 02:57:30;;;;;;;;;;;;;;;4.89;100.00;95338.91;1035831;28;19909;-73